KRDM/RDM METAR and TAF weather

Enter ICAO airport designator
Station Type Date Time Source
KRDM METAR 2020/02/20 16:56 UTC NOAA

KRDM 201656Z 16008KT 10SM CLR 03/M09 A3028 RMK AO2 SLP272 T00281089


Station Type Date Time Source
KRDM Decoded METAR 2020/02/20 16:56 UTC NOAA

REDMOND ROBERTS FIELD, OR, United States (KRDM) 44-15N 121-08W
Feb 20, 2020 - 11:56 AM EST / 2020.02.20 1656 UTC
Wind: from the SSE (160 degrees) at 9 MPH (8 KT):0
Visibility: 10 mile(s):0
Sky conditions: clear
Temperature: 37.0 F (2.8 C)
Dew Point: 16.0 F (-8.9 C)
Relative Humidity: 41%
Pressure (altimeter): 30.28 in. Hg (1025 hPa)
ob: KRDM 201656Z 16008KT 10SM CLR 03/M09 A3028 RMK AO2 SLP272 T00281089
cycle: 17

Station Type Date Time Source
KRDM TAF 2020/02/20 18:27 UTC NOAA

TAF KRDM 201722Z 2018/2118 VRB04KT P6SM BKN200

Example: see airport list